Time;durP1;ratioP1;P1;durP2;ratioP2;P2;SDS_P1;SDS_P2;PMS_P1;PMS_P2;Temp;Humidity;BMP_temperature;BMP_pressure;BME280_temperature;BME280_humidity;BME280_pressure;Samples;Min_cycle;Max_cycle;Signal;HPM_P1;HPM_P2
2022/09/01 00:00:22;;;;;;;5.40;1.30;;;;;;;10.30;89.41;100569.64;105051;1271;69576;-73
2022/09/01 00:03:11;;;;;;;5.50;1.50;;;;;;;10.28;89.53;100570.86;105096;1271;70874;-74
2022/09/01 00:05:59;;;;;;;6.60;1.40;;;;;;;10.26;89.84;100572.95;105100;1271;59755;-73
2022/09/01 00:08:57;;;;;;;6.70;1.40;;;;;;;10.23;89.78;100569.20;105298;1271;60565;-73
2022/09/01 00:11:49;;;;;;;7.80;1.50;;;;;;;10.21;89.59;100567.77;104883;1273;73549;-74
2022/09/01 00:14:40;;;;;;;6.30;1.40;;;;;;;10.18;89.46;100569.34;104693;1276;68054;-73
2022/09/01 00:17:28;;;;;;;5.30;1.40;;;;;;;10.16;89.56;100572.16;104619;1274;74405;-72
2022/09/01 00:20:17;;;;;;;5.40;1.40;;;;;;;10.15;89.71;100571.52;104721;1275;60247;-74
2022/09/01 00:23:07;;;;;;;5.70;1.20;;;;;;;10.15;90.01;100581.45;104699;1275;59709;-73
2022/09/01 00:25:55;;;;;;;5.60;1.20;;;;;;;10.24;90.32;100587.40;104745;1275;73662;-72
2022/09/01 00:28:43;;;;;;;5.40;1.10;;;;;;;10.39;90.45;100589.80;104789;1275;69405;-72
2022/09/01 00:31:33;;;;;;;5.60;1.20;;;;;;;10.55;90.11;100589.25;104863;1274;74732;-72
2022/09/01 00:34:21;;;;;;;6.20;1.20;;;;;;;10.70;90.82;100594.23;104699;1275;59852;-72
2022/09/01 00:37:09;;;;;;;6.10;1.40;;;;;;;10.83;92.09;100598.11;104787;1275;60530;-74
2022/09/01 00:39:57;;;;;;;5.30;1.40;;;;;;;10.93;92.31;100590.84;104820;1274;74783;-73
2022/09/01 00:42:47;;;;;;;5.80;1.30;;;;;;;11.02;92.85;100592.69;104833;1274;68535;-73
2022/09/01 00:45:35;;;;;;;4.50;1.10;;;;;;;11.08;93.24;100587.85;104921;1271;74440;-72
2022/09/01 00:48:24;;;;;;;5.70;1.30;;;;;;;11.13;93.33;100579.32;105162;1271;61576;-71
2022/09/01 00:51:12;;;;;;;5.80;1.30;;;;;;;11.17;93.94;100577.22;105120;1271;60676;-71
2022/09/01 00:54:02;;;;;;;5.20;1.20;;;;;;;11.21;94.22;100571.23;105149;1271;74846;-72
2022/09/01 00:56:51;;;;;;;5.60;1.20;;;;;;;11.24;94.08;100569.97;105373;1271;69556;-71
2022/09/01 00:59:53;;;;;;;6.00;1.20;;;;;;;11.26;94.82;100564.52;105214;1271;74215;-71
2022/09/01 01:02:43;;;;;;;7.00;1.10;;;;;;;11.26;94.43;100557.22;105053;1271;61255;-72
2022/09/01 01:05:39;;;;;;;4.70;1.30;;;;;;;11.27;94.77;100553.11;105136;1271;60609;-72
2022/09/01 01:08:32;;;;;;;4.40;1.20;;;;;;;11.29;95.00;100551.00;105109;1271;74799;-71
2022/09/01 01:11:20;;;;;;;5.00;1.30;;;;;;;11.31;95.16;100552.98;104932;1271;69667;-71
2022/09/01 01:14:11;;;;;;;5.50;0.90;;;;;;;11.33;95.05;100551.25;105103;1271;73458;-71
2022/09/01 01:17:02;;;;;;;5.90;1.20;;;;;;;11.37;95.35;100553.80;104938;1271;61280;-72
2022/09/01 01:23:35;;;;;;;5.90;1.10;;;;;;;11.44;95.03;100551.67;105330;1271;73211;-71
2022/09/01 01:26:24;;;;;;;5.10;1.10;;;;;;;11.48;94.93;100553.31;105099;1271;66691;-71
2022/09/01 01:29:13;;;;;;;5.70;1.40;;;;;;;11.49;94.63;100552.92;105054;1271;71880;-71
2022/09/01 01:32:11;;;;;;;5.00;1.30;;;;;;;11.48;94.54;100552.83;104995;1271;59753;-71
2022/09/01 01:35:02;;;;;;;5.00;1.00;;;;;;;11.47;94.59;100555.20;104954;1271;59970;-71
2022/09/01 01:37:50;;;;;;;4.50;1.00;;;;;;;11.45;94.60;100551.77;104955;1271;75157;-73
2022/09/01 01:40:40;;;;;;;4.90;1.10;;;;;;;11.44;94.26;100553.98;104898;1271;69594;-72
2022/09/01 01:43:29;;;;;;;6.30;1.20;;;;;;;11.43;94.07;100554.42;104957;1271;73364;-72
2022/09/01 01:46:17;;;;;;;4.60;1.10;;;;;;;11.41;94.17;100554.68;104957;1270;59678;-73
2022/09/01 01:49:12;;;;;;;5.20;1.10;;;;;;;11.40;93.99;100554.80;104983;1271;60475;-72
2022/09/01 01:52:03;;;;;;;5.00;1.10;;;;;;;11.40;93.77;100553.92;105219;1271;71986;-72
2022/09/01 01:54:55;;;;;;;4.80;1.00;;;;;;;11.39;93.64;100553.09;105292;1271;69834;-71
2022/09/01 01:57:48;;;;;;;5.40;1.10;;;;;;;11.37;93.26;100551.30;105151;1270;73390;-72
2022/09/01 02:00:37;;;;;;;4.70;1.10;;;;;;;11.34;93.07;100546.50;104960;1271;59731;-72
2022/09/01 02:03:37;;;;;;;4.60;1.10;;;;;;;11.33;93.05;100548.61;104342;1271;1461078;-70
2022/09/01 02:06:27;;;;;;;4.70;1.00;;;;;;;11.32;93.10;100547.59;105335;1271;73812;-73
2022/09/01 02:09:22;;;;;;;4.40;1.20;;;;;;;11.31;92.56;100545.65;104718;1275;68649;-72
2022/09/01 02:12:10;;;;;;;4.80;1.10;;;;;;;11.31;92.68;100546.77;104710;1277;73620;-72
2022/09/01 02:15:03;;;;;;;4.60;0.90;;;;;;;11.30;92.32;100542.05;104982;1274;59886;-73
2022/09/01 02:17:58;;;;;;;3.90;0.90;;;;;;;11.29;92.34;100535.36;105014;1275;59993;-72
2022/09/01 02:20:52;;;;;;;6.00;1.20;;;;;;;11.23;92.02;100534.14;104804;1274;74785;-74
2022/09/01 02:23:40;;;;;;;5.50;1.10;;;;;;;11.19;92.28;100534.11;104753;1277;69611;-73
2022/09/01 02:26:38;;;;;;;5.00;1.00;;;;;;;11.12;92.32;100531.05;105032;1275;74410;-71
2022/09/01 02:29:27;;;;;;;4.10;1.00;;;;;;;11.06;92.64;100535.03;104804;1275;61935;-71
2022/09/01 02:32:20;;;;;;;5.30;1.20;;;;;;;11.01;92.82;100533.46;104726;1276;61976;-72
2022/09/01 02:35:10;;;;;;;4.30;1.00;;;;;;;10.96;93.28;100527.09;104701;1276;73617;-71
2022/09/01 02:38:00;;;;;;;5.10;1.00;;;;;;;10.94;93.74;100531.30;104758;1275;69587;-71
2022/09/01 02:40:48;;;;;;;4.60;1.20;;;;;;;10.93;93.53;100533.55;104976;1271;73172;-71
2022/09/01 02:43:37;;;;;;;4.20;1.00;;;;;;;10.92;93.87;100531.79;105135;1271;59694;-70
2022/09/01 02:46:25;;;;;;;4.30;1.10;;;;;;;10.91;93.99;100530.09;105099;1271;60988;-71
2022/09/01 02:49:23;;;;;;;4.20;1.10;;;;;;;10.90;94.01;100532.06;104932;1271;73706;-71
2022/09/01 02:52:14;;;;;;;4.10;1.00;;;;;;;10.90;94.05;100532.45;105033;1271;68072;-71
2022/09/01 02:55:03;;;;;;;4.70;0.90;;;;;;;10.90;94.22;100533.52;105213;1271;71373;-71
2022/09/01 02:57:55;;;;;;;5.10;0.90;;;;;;;10.91;94.70;100529.93;104887;1271;60004;-71
2022/09/01 03:00:51;;;;;;;5.80;1.20;;;;;;;10.92;94.65;100528.47;105108;1271;59737;-71
2022/09/01 03:03:39;;;;;;;5.10;1.00;;;;;;;10.92;94.54;100528.26;105304;1271;73221;-71
2022/09/01 03:06:30;;;;;;;4.90;0.90;;;;;;;10.94;94.65;100528.69;105023;1271;68629;-72
2022/09/01 03:09:18;;;;;;;4.50;1.10;;;;;;;10.96;94.80;100525.49;105058;1271;74544;-72
2022/09/01 03:12:06;;;;;;;5.40;1.30;;;;;;;10.99;94.43;100526.33;105067;1271;60367;-72
2022/09/01 03:14:55;;;;;;;4.10;1.10;;;;;;;11.02;94.56;100525.05;105101;1271;61884;-71
2022/09/01 03:17:44;;;;;;;5.00;1.20;;;;;;;11.05;94.42;100526.24;104563;1274;71023;-72
2022/09/01 03:20:35;;;;;;;6.30;1.20;;;;;;;11.08;94.24;100523.71;105159;1271;68436;-70
2022/09/01 03:23:26;;;;;;;4.90;1.10;;;;;;;11.12;93.83;100525.25;105403;1271;73443;-71
2022/09/01 03:26:18;;;;;;;4.70;1.00;;;;;;;11.15;94.24;100526.39;104978;1271;59644;-72
2022/09/01 03:29:07;;;;;;;4.90;1.10;;;;;;;11.17;93.91;100524.16;104969;1271;60823;-71
2022/09/01 03:31:55;;;;;;;4.90;1.20;;;;;;;11.20;93.75;100525.15;105109;1271;74427;-71
2022/09/01 03:34:44;;;;;;;4.80;1.30;;;;;;;11.23;93.77;100525.98;105254;1271;69291;-71
2022/09/01 03:37:33;;;;;;;5.50;1.20;;;;;;;11.26;93.94;100524.39;104970;1271;72852;-72
2022/09/01 03:40:20;;;;;;;5.30;1.20;;;;;;;11.27;93.39;100524.28;105081;1271;61323;-73
2022/09/01 03:43:09;;;;;;;4.70;1.30;;;;;;;11.31;93.30;100522.80;105096;1271;61004;-71
2022/09/01 03:45:59;;;;;;;5.00;1.30;;;;;;;11.32;93.19;100527.85;104879;1271;73760;-72
2022/09/01 03:49:01;;;;;;;7.70;1.10;;;;;;;11.33;93.06;100529.21;104859;1271;66812;-71
2022/09/01 03:51:52;;;;;;;5.00;1.10;;;;;;;11.34;93.28;100532.85;104905;1271;71687;-72
2022/09/01 03:54:40;;;;;;;4.50;1.10;;;;;;;11.34;93.35;100535.01;105006;1271;59687;-72
2022/09/01 03:57:29;;;;;;;5.00;1.20;;;;;;;11.31;93.18;100531.09;105144;1271;62172;-72
2022/09/01 04:00:28;;;;;;;4.30;1.20;;;;;;;11.32;93.67;100531.06;105814;1271;71959;-74
2022/09/01 04:03:21;;;;;;;6.00;1.10;;;;;;;11.34;93.40;100527.92;104921;1271;68060;-71
2022/09/01 04:06:18;;;;;;;5.80;1.30;;;;;;;11.36;93.37;100530.60;105006;1271;74477;-71
2022/09/01 04:09:06;;;;;;;4.30;1.10;;;;;;;11.37;93.67;100531.36;105144;1271;60173;-72
2022/09/01 04:11:54;;;;;;;5.60;1.30;;;;;;;11.39;93.41;100530.84;104985;1271;62873;-73
2022/09/01 04:14:43;;;;;;;4.30;1.00;;;;;;;11.41;93.46;100526.61;105096;1271;74666;-73
2022/09/01 04:20:48;;;;;;;5.10;1.30;;;;;;;11.48;93.99;100517.28;104977;1271;71618;-73
2022/09/01 04:23:36;;;;;;;5.30;1.00;;;;;;;11.47;93.95;100518.17;105161;1274;60262;-74
2022/09/01 04:26:30;;;;;;;4.30;0.90;;;;;;;11.51;94.13;100519.70;105044;1271;61084;-72
2022/09/01 04:29:26;;;;;;;4.10;1.10;;;;;;;11.54;94.26;100521.44;104964;1271;73699;-74
2022/09/01 04:32:15;;;;;;;3.50;0.80;;;;;;;11.55;94.34;100519.57;104968;1272;70096;-75
2022/09/01 04:35:10;;;;;;;5.50;1.30;;;;;;;11.58;94.26;100514.04;105164;1271;73470;-74
2022/09/01 04:37:59;;;;;;;4.50;1.20;;;;;;;11.59;94.17;100517.48;105137;1271;61254;-73
2022/09/01 04:40:48;;;;;;;4.30;0.90;;;;;;;11.62;94.01;100518.73;105202;1271;62046;-74
2022/09/01 04:43:36;;;;;;;4.50;1.20;;;;;;;11.62;93.60;100518.35;105092;1271;73270;-72
2022/09/01 04:46:30;;;;;;;6.10;1.10;;;;;;;11.63;93.64;100518.66;105071;1271;67584;-73
2022/09/01 04:49:21;;;;;;;4.10;1.00;;;;;;;11.62;93.49;100518.39;105330;1271;73946;-73
2022/09/01 04:52:09;;;;;;;3.90;1.10;;;;;;;11.59;93.37;100516.77;105342;1271;61690;-73
2022/09/01 04:54:57;;;;;;;4.50;1.10;;;;;;;11.59;93.42;100520.52;105473;1271;60481;-73
2022/09/01 04:57:48;;;;;;;6.20;1.10;;;;;;;11.58;93.20;100523.27;105106;1271;73304;-76
2022/09/01 05:00:36;;;;;;;5.00;1.10;;;;;;;11.59;93.36;100525.98;105240;1271;68348;-73
2022/09/01 05:03:25;;;;;;;5.60;1.30;;;;;;;11.62;93.24;100524.75;105604;1271;72467;-74
2022/09/01 05:06:18;;;;;;;5.60;1.20;;;;;;;11.67;93.08;100523.15;105345;1271;59564;-74
2022/09/01 05:09:12;;;;;;;4.90;1.20;;;;;;;11.74;92.56;100527.90;105799;1271;60522;-74
2022/09/01 05:12:09;;;;;;;6.60;1.10;;;;;;;11.93;92.34;100530.07;105084;1271;74802;-73
2022/09/01 05:15:08;;;;;;;5.20;1.00;;;;;;;12.17;91.18;100527.58;105200;1271;67094;-75
2022/09/01 05:18:00;;;;;;;7.30;1.30;;;;;;;12.27;90.61;100527.83;105120;1271;75140;-73
2022/09/01 05:20:51;;;;;;;4.40;1.20;;;;;;;12.35;90.10;100528.26;105167;1271;59878;-74
2022/09/01 05:23:40;;;;;;;5.80;1.30;;;;;;;12.42;89.49;100530.23;105532;1272;60531;-73
2022/09/01 05:26:33;;;;;;;6.50;1.00;;;;;;;12.50;89.08;100524.47;105155;1271;74688;-72
2022/09/01 05:29:21;;;;;;;6.40;1.50;;;;;;;12.52;88.54;100529.15;105289;1271;68616;-75
2022/09/01 05:32:11;;;;;;;4.60;1.00;;;;;;;12.52;88.63;100528.77;105073;1272;74121;-73
2022/09/01 05:35:00;;;;;;;4.40;1.20;;;;;;;12.55;88.59;100527.46;105128;1271;59755;-73
2022/09/01 05:37:50;;;;;;;5.40;1.30;;;;;;;12.56;88.51;100527.89;106040;1271;61032;-75
2022/09/01 05:40:42;;;;;;;5.40;1.30;;;;;;;12.59;88.51;100524.46;105279;1271;71044;-74
2022/09/01 05:43:31;;;;;;;4.50;1.20;;;;;;;12.62;88.67;100529.23;105449;1271;67674;-73
2022/09/01 05:46:25;;;;;;;5.70;1.50;;;;;;;12.72;88.74;100535.58;105550;1271;74857;-72
2022/09/01 05:49:17;;;;;;;4.40;1.30;;;;;;;12.79;88.38;100531.10;105102;1271;59792;-72
2022/09/01 05:52:08;;;;;;;6.40;1.30;;;;;;;12.90;87.80;100532.54;105465;1271;62111;-74
2022/09/01 05:54:58;;;;;;;5.80;1.10;;;;;;;13.05;87.03;100535.95;105111;1271;74184;-73
2022/09/01 05:57:49;;;;;;;4.60;1.10;;;;;;;13.22;86.22;100535.16;105282;1271;68115;-72
2022/09/01 06:00:37;;;;;;;4.50;1.00;;;;;;;13.45;85.33;100536.85;105240;1271;72833;-72
2022/09/01 06:03:27;;;;;;;5.50;1.00;;;;;;;13.69;84.25;100533.28;105142;1271;59828;-75
2022/09/01 06:06:17;;;;;;;5.10;1.10;;;;;;;13.99;81.98;100527.95;105077;1274;59646;-74
2022/09/01 06:09:07;;;;;;;6.20;1.10;;;;;;;14.32;80.70;100529.94;104987;1274;73601;-73
2022/09/01 06:11:55;;;;;;;4.70;0.90;;;;;;;14.72;79.92;100526.13;104943;1274;66755;-76
2022/09/01 06:14:47;;;;;;;4.10;1.00;;;;;;;15.17;77.76;100523.30;104948;1274;71214;-74
2022/09/01 06:17:35;;;;;;;4.20;1.00;;;;;;;15.46;75.30;100524.26;104894;1274;59826;-74
2022/09/01 06:20:26;;;;;;;5.70;1.10;;;;;;;15.72;73.55;100521.34;105041;1274;60362;-73
2022/09/01 06:23:17;;;;;;;4.40;0.90;;;;;;;16.09;72.17;100517.63;104816;1274;74476;-74
2022/09/01 06:26:06;;;;;;;4.70;0.80;;;;;;;16.83;70.14;100525.36;105500;1274;66981;-71
2022/09/01 06:29:02;;;;;;;5.20;1.40;;;;;;;17.77;66.94;100527.63;104896;1274;74435;-72
2022/09/01 06:31:51;;;;;;;5.00;1.20;;;;;;;20.11;59.21;100525.40;105103;1274;59606;-75
2022/09/01 06:34:49;;;;;;;5.20;1.20;;;;;;;22.49;52.14;100519.43;104938;1274;59807;-75
2022/09/01 06:37:43;;;;;;;4.40;1.00;;;;;;;24.44;46.94;100519.98;105009;1271;73253;-72
2022/09/01 06:40:34;;;;;;;5.10;1.00;;;;;;;25.17;42.57;100519.37;105065;1271;68500;-73
2022/09/01 06:43:29;;;;;;;4.20;0.70;;;;;;;24.59;42.43;100519.38;105167;1271;71554;-72
2022/09/01 06:46:18;;;;;;;5.30;1.20;;;;;;;23.86;42.84;100527.45;105230;1271;59867;-72
2022/09/01 06:49:10;;;;;;;4.80;1.20;;;;;;;23.34;43.80;100530.73;105176;1271;61049;-71
2022/09/01 06:52:02;;;;;;;5.00;1.20;;;;;;;23.95;42.97;100525.56;105116;1272;73784;-71
2022/09/01 06:54:52;;;;;;;5.30;0.90;;;;;;;24.14;40.98;100524.06;106115;1271;67054;-73
2022/09/01 06:57:46;;;;;;;4.50;1.00;;;;;;;23.84;41.93;100525.14;105642;1272;74827;-72
2022/09/01 07:00:55;;;;;;;6.60;1.00;;;;;;;23.94;41.34;100526.20;105084;1271;59601;-72
2022/09/01 07:03:49;;;;;;;4.30;1.00;;;;;;;23.97;41.34;100524.77;105677;1271;60579;-73
2022/09/01 07:06:56;;;;;;;5.70;1.10;;;;;;;24.95;39.95;100520.86;104890;1271;73235;-73
2022/09/01 07:10:26;;;;;;;4.90;1.00;;;;;;;26.77;37.48;100520.66;105124;1272;69565;-75
2022/09/01 07:13:24;;;;;;;4.10;0.90;;;;;;;28.28;34.92;100515.63;105116;1274;71764;-74
2022/09/01 07:16:21;;;;;;;4.90;0.80;;;;;;;29.49;32.26;100516.20;105178;1271;59855;-72
2022/09/01 07:19:20;;;;;;;4.50;0.80;;;;;;;30.67;29.89;100518.86;105443;1271;62021;-72
2022/09/01 07:22:15;;;;;;;4.50;0.70;;;;;;;31.59;28.95;100517.88;105226;1271;73466;-72
2022/09/01 07:25:23;;;;;;;4.20;0.90;;;;;;;32.32;27.45;100517.19;105081;1271;66802;-72
2022/09/01 07:28:45;;;;;;;4.50;0.90;;;;;;;31.93;26.43;100516.58;105535;1271;74256;-74
2022/09/01 07:31:42;;;;;;;5.00;1.10;;;;;;;30.13;28.16;100519.34;105151;1271;59769;-73
2022/09/01 07:34:51;;;;;;;4.50;1.00;;;;;;;28.66;29.58;100524.57;105341;1271;62049;-73
2022/09/01 07:37:41;;;;;;;6.30;1.00;;;;;;;27.61;30.65;100522.16;105152;1271;74598;-74
2022/09/01 07:40:53;;;;;;;5.70;0.90;;;;;;;28.80;29.85;100517.09;105202;1271;68651;-72
2022/09/01 07:44:12;;;;;;;4.70;0.90;;;;;;;30.06;28.27;100516.87;105217;1271;74559;-74
2022/09/01 07:47:36;;;;;;;4.70;0.90;;;;;;;31.27;26.78;100511.28;105205;1271;59795;-74
2022/09/01 07:50:46;;;;;;;4.90;0.70;;;;;;;32.29;25.53;100511.38;105512;1271;60753;-74
2022/09/01 07:53:55;;;;;;;5.70;0.90;;;;;;;33.21;23.70;100511.29;105189;1271;72945;-75
2022/09/01 07:56:46;;;;;;;4.10;0.70;;;;;;;33.75;22.39;100518.84;105009;1272;68692;-75
2022/09/01 07:59:35;;;;;;;3.90;0.70;;;;;;;33.81;22.12;100515.85;105024;1271;73212;-74
2022/09/01 08:02:31;;;;;;;5.10;0.70;;;;;;;33.72;21.90;100517.47;106692;1271;59658;-74
2022/09/01 08:05:25;;;;;;;3.80;0.70;;;;;;;32.45;22.56;100520.23;106535;1271;62128;-74
2022/09/01 08:08:13;;;;;;;3.50;0.70;;;;;;;32.73;22.65;100517.50;105209;1271;73252;-75
2022/09/01 08:11:25;;;;;;;3.90;0.60;;;;;;;33.08;22.09;100516.60;106330;1274;69094;-76
2022/09/01 08:14:33;;;;;;;5.20;0.70;;;;;;;33.13;22.13;100513.29;106165;1271;72257;-75
2022/09/01 08:17:21;;;;;;;4.00;0.70;;;;;;;31.24;23.58;100522.46;105210;1271;59731;-73
2022/09/01 08:20:38;;;;;;;4.10;0.70;;;;;;;28.67;26.12;100533.34;105566;1271;60436;-75
2022/09/01 08:23:37;;;;;;;5.30;0.80;;;;;;;26.60;29.00;100535.49;105695;1271;72057;-74
2022/09/01 08:26:26;;;;;;;4.20;1.00;;;;;;;25.53;30.85;100536.76;105157;1274;68063;-73
2022/09/01 08:29:15;;;;;;;4.50;0.80;;;;;;;26.70;30.28;100530.73;105260;1271;73221;-74
2022/09/01 08:32:03;;;;;;;5.60;1.10;;;;;;;28.11;28.17;100529.10;105143;1271;59690;-74
2022/09/01 08:34:53;;;;;;;4.50;0.80;;;;;;;29.33;26.57;100523.15;105179;1270;62035;-72
2022/09/01 08:37:43;;;;;;;3.60;0.50;;;;;;;30.70;25.82;100522.77;105410;1271;73239;-74
2022/09/01 08:40:31;;;;;;;4.50;0.70;;;;;;;30.17;25.19;100528.19;105197;1271;67691;-74
2022/09/01 08:43:37;;;;;;;5.30;1.00;;;;;;;28.72;26.59;100526.58;105492;1271;72700;-74
2022/09/01 08:46:41;;;;;;;2.90;0.70;;;;;;;29.23;26.14;100526.65;105267;1271;59711;-74
2022/09/01 08:49:35;;;;;;;4.30;0.80;;;;;;;30.14;25.15;100526.55;104997;1271;61640;-73
2022/09/01 08:53:10;;;;;;;3.70;0.80;;;;;;;30.54;24.60;100522.52;105343;1274;74882;-74
2022/09/01 08:55:59;;;;;;;3.90;0.70;;;;;;;30.23;24.32;100523.14;105702;1271;69609;-74
2022/09/01 08:58:47;;;;;;;4.80;0.80;;;;;;;31.20;23.73;100513.19;106558;1271;72930;-73
2022/09/01 09:02:39;;;;;;;3.30;0.60;;;;;;;31.13;23.94;100513.36;106043;1271;59839;-74
2022/09/01 09:06:07;;;;;;;4.90;0.70;;;;;;;29.94;25.49;100520.80;106418;1277;61928;-74
2022/09/01 09:09:03;;;;;;;4.80;0.80;;;;;;;28.22;28.07;100528.78;104579;1277;73520;-74
2022/09/01 09:12:05;;;;;;;4.40;0.70;;;;;;;26.49;30.45;100532.73;104689;1278;66778;-74
2022/09/01 09:15:39;;;;;;;4.40;0.80;;;;;;;24.99;32.86;100535.35;106046;1277;73217;-74
2022/09/01 09:18:49;;;;;;;4.20;0.90;;;;;;;24.62;33.59;100530.21;104580;1284;59782;-74
2022/09/01 09:21:50;;;;;;;4.90;1.00;;;;;;;26.18;31.77;100520.55;104824;1284;61944;-75
2022/09/01 09:25:13;;;;;;;4.40;1.20;;;;;;;27.74;29.87;100516.73;105452;1283;74495;-73
2022/09/01 09:28:05;;;;;;;4.20;1.00;;;;;;;29.32;27.23;100508.23;104015;1284;66766;-73
2022/09/01 09:31:24;;;;;;;3.90;0.70;;;;;;;30.27;26.06;100505.88;104692;1284;73250;-73
2022/09/01 09:34:38;;;;;;;3.10;0.50;;;;;;;29.85;26.08;100509.15;104052;1282;59784;-74
2022/09/01 09:37:30;;;;;;;4.60;0.50;;;;;;;28.10;28.21;100516.48;104600;1284;59646;-74
2022/09/01 09:40:25;;;;;;;4.60;0.90;;;;;;;26.83;30.39;100516.14;104463;1280;71297;-74
2022/09/01 09:43:15;;;;;;;3.30;0.70;;;;;;;25.23;32.78;100522.60;106142;1278;68884;-75
2022/09/01 09:46:30;;;;;;;4.30;0.80;;;;;;;23.95;35.25;100538.47;104615;1280;74208;-74
2022/09/01 09:49:32;;;;;;;4.30;0.70;;;;;;;22.40;37.75;100537.55;104932;1279;60316;-74
2022/09/01 09:52:27;;;;;;;4.70;0.70;;;;;;;21.35;42.21;100537.20;104857;1274;62113;-74
2022/09/01 09:55:27;;;;;;;3.70;0.70;;;;;;;20.61;45.41;100533.05;105079;1271;72212;-74
2022/09/01 09:58:15;;;;;;;5.00;0.80;;;;;;;20.02;46.03;100533.25;105515;1271;66613;-74
2022/09/01 10:01:24;;;;;;;4.00;0.90;;;;;;;19.67;47.48;100539.98;105146;1271;71561;-74
2022/09/01 10:04:32;;;;;;;4.20;0.80;;;;;;;19.51;46.49;100542.77;105183;1271;59877;-73
2022/09/01 10:07:34;;;;;;;3.60;0.80;;;;;;;19.47;47.11;100549.08;105426;1271;59668;-72
2022/09/01 10:10:49;;;;;;;5.10;0.80;;;;;;;19.72;47.04;100548.10;105048;1271;74552;-74
2022/09/01 10:13:46;;;;;;;4.60;1.00;;;;;;;21.00;44.65;100544.52;105165;1271;67875;-73
2022/09/01 10:16:41;;;;;;;3.90;0.80;;;;;;;23.32;39.79;100539.51;105150;1271;71735;-73
2022/09/01 10:19:32;;;;;;;4.80;0.70;;;;;;;25.43;34.97;100539.23;105109;1271;59682;-73
2022/09/01 10:22:23;;;;;;;4.80;0.90;;;;;;;26.10;33.09;100543.63;105112;1271;62016;-74
2022/09/01 10:25:19;;;;;;;4.50;1.00;;;;;;;26.17;32.90;100542.70;105087;1271;75041;-75
2022/09/01 10:28:20;;;;;;;5.20;1.00;;;;;;;26.13;32.80;100545.27;105164;1271;70258;-73
2022/09/01 10:31:09;;;;;;;5.50;1.00;;;;;;;26.76;32.31;100543.15;105029;1271;73299;-73
2022/09/01 10:34:02;;;;;;;4.10;1.00;;;;;;;27.91;30.91;100540.90;105027;1271;59729;-74
2022/09/01 10:36:53;;;;;;;6.00;0.80;;;;;;;28.72;29.42;100536.70;105017;1271;59662;-74
2022/09/01 10:40:37;;;;;;;3.80;0.50;;;;;;;27.91;30.38;100543.91;105138;1271;73332;-73
2022/09/01 10:43:35;;;;;;;3.40;0.50;;;;;;;26.46;31.34;100544.73;105352;1271;69699;-73
2022/09/01 10:46:25;;;;;;;5.40;1.30;;;;;;;27.20;30.29;100537.02;105206;1271;73275;-74
2022/09/01 10:49:27;;;;;;;3.40;0.80;;;;;;;28.08;29.01;100543.84;105372;1269;59650;-73
2022/09/01 10:52:41;;;;;;;4.30;0.70;;;;;;;28.41;27.75;100537.27;105426;1271;59640;-71
2022/09/01 10:55:45;;;;;;;4.20;0.80;;;;;;;29.03;26.12;100531.41;105101;1271;75283;-73
2022/09/01 10:59:03;;;;;;;3.40;0.50;;;;;;;29.14;25.87;100534.80;105106;1271;69510;-74
2022/09/01 11:02:16;;;;;;;3.90;0.80;;;;;;;28.63;26.86;100540.25;105354;1271;71291;-73
2022/09/01 11:05:16;;;;;;;4.60;0.90;;;;;;;28.99;26.03;100545.61;106182;1271;59713;-72
2022/09/01 11:08:42;;;;;;;4.10;0.80;;;;;;;28.21;27.06;100546.50;105185;1271;59707;-74
2022/09/01 11:12:23;;;;;;;4.80;1.30;;;;;;;26.59;29.52;100544.11;105635;1271;73231;-72
2022/09/01 11:15:16;;;;;;;4.20;0.90;;;;;;;25.07;32.12;100553.89;105261;1271;68768;-72
2022/09/01 11:18:16;;;;;;;4.40;0.90;;;;;;;25.44;31.92;100551.27;105091;1271;74380;-71
2022/09/01 11:21:28;;;;;;;4.70;0.70;;;;;;;26.11;30.08;100548.24;105355;1271;59643;-73
2022/09/01 11:24:40;;;;;;;4.10;0.70;;;;;;;26.59;29.86;100538.81;105418;1271;59678;-73
2022/09/01 11:27:47;;;;;;;3.90;0.80;;;;;;;26.90;29.01;100538.70;105129;1271;73180;-71
2022/09/01 11:30:54;;;;;;;5.10;0.80;;;;;;;26.29;29.25;100535.05;105137;1271;69619;-73
2022/09/01 11:33:55;;;;;;;3.70;0.60;;;;;;;26.69;28.98;100534.41;105118;1271;74364;-73
2022/09/01 11:36:46;;;;;;;5.00;0.90;;;;;;;26.96;28.02;100532.21;105352;1271;59725;-73
2022/09/01 11:39:48;;;;;;;3.60;0.90;;;;;;;27.41;27.99;100530.81;105170;1271;61895;-73
2022/09/01 11:42:43;;;;;;;4.00;1.00;;;;;;;27.52;27.06;100533.47;105200;1271;74363;-74
2022/09/01 11:45:53;;;;;;;3.50;0.60;;;;;;;27.72;26.98;100539.17;104945;1271;68312;-73
2022/09/01 11:48:48;;;;;;;3.20;0.60;;;;;;;27.38;26.67;100545.48;105227;1271;72866;-74
2022/09/01 11:51:45;;;;;;;4.10;0.80;;;;;;;27.05;27.26;100540.79;105687;1271;59763;-74
2022/09/01 11:54:41;;;;;;;3.50;0.70;;;;;;;27.02;27.89;100537.74;104990;1271;60831;-74
2022/09/01 11:57:40;;;;;;;3.90;0.80;;;;;;;27.09;28.09;100540.11;105255;1271;74074;-75
2022/09/01 12:00:39;;;;;;;4.90;0.80;;;;;;;27.25;28.63;100544.23;105258;1271;69568;-74
2022/09/01 12:03:29;;;;;;;4.40;0.80;;;;;;;27.37;29.01;100545.58;105515;1271;73295;-73
2022/09/01 12:06:25;;;;;;;4.50;0.90;;;;;;;27.33;28.89;100542.19;105172;1271;59706;-75
2022/09/01 12:09:14;;;;;;;5.40;0.80;;;;;;;26.98;28.89;100534.69;105151;1271;59711;-74
2022/09/01 12:12:06;;;;;;;4.40;0.80;;;;;;;26.51;30.84;100538.13;105138;1271;71982;-75
2022/09/01 12:15:24;;;;;;;4.30;0.80;;;;;;;25.64;32.15;100542.27;105190;1271;69411;-72
2022/09/01 12:18:21;;;;;;;3.90;0.80;;;;;;;24.69;33.74;100540.92;105157;1271;74396;-73
2022/09/01 12:21:45;;;;;;;3.80;0.80;;;;;;;23.85;34.97;100548.19;105266;1271;59664;-75
2022/09/01 12:24:36;;;;;;;3.80;0.80;;;;;;;22.97;36.42;100544.60;105046;1271;61090;-74
2022/09/01 12:27:24;;;;;;;4.10;0.90;;;;;;;22.40;37.84;100549.30;105369;1271;75356;-73
2022/09/01 12:30:13;;;;;;;4.30;0.90;;;;;;;22.07;38.56;100546.91;105218;1271;66900;-73
2022/09/01 12:33:05;;;;;;;4.30;0.90;;;;;;;21.83;39.17;100547.98;105017;1271;74624;-75
2022/09/01 12:36:21;;;;;;;4.10;0.80;;;;;;;21.31;39.99;100555.63;105284;1271;59659;-74
2022/09/01 12:39:23;;;;;;;4.30;1.00;;;;;;;20.82;40.88;100557.73;105183;1271;59727;-74
2022/09/01 12:42:33;;;;;;;4.80;1.00;;;;;;;20.27;43.17;100558.24;105499;1271;73102;-72
2022/09/01 12:45:43;;;;;;;4.70;0.90;;;;;;;20.07;44.59;100554.11;105512;1271;69520;-73
2022/09/01 12:48:39;;;;;;;4.30;0.90;;;;;;;20.16;45.01;100548.70;105497;1271;73626;-73
2022/09/01 12:51:27;;;;;;;5.50;0.90;;;;;;;20.16;44.01;100550.45;105167;1271;59687;-72
2022/09/01 12:54:24;;;;;;;4.90;0.80;;;;;;;20.15;43.74;100544.31;105304;1271;61516;-74
2022/09/01 12:57:38;;;;;;;3.80;0.90;;;;;;;20.07;42.67;100547.28;105170;1271;72940;-74
2022/09/01 13:00:33;;;;;;;4.60;1.00;;;;;;;19.78;42.29;100555.30;105395;1271;69795;-73
2022/09/01 13:03:22;;;;;;;4.20;0.90;;;;;;;19.79;42.46;100555.78;105391;1271;73449;-75
2022/09/01 13:06:10;;;;;;;4.40;0.90;;;;;;;19.84;42.48;100557.18;105147;1271;59772;-75
2022/09/01 13:08:58;;;;;;;5.50;0.90;;;;;;;19.79;40.84;100554.52;105172;1271;61986;-75
2022/09/01 13:11:46;;;;;;;3.90;0.80;;;;;;;19.80;40.97;100551.54;105330;1271;72788;-73
2022/09/01 13:14:55;;;;;;;4.30;0.90;;;;;;;19.91;41.88;100555.56;105213;1271;67946;-73
2022/09/01 13:17:43;;;;;;;3.60;0.80;;;;;;;20.01;41.84;100551.76;105340;1270;74525;-73
2022/09/01 13:20:31;;;;;;;3.20;0.70;;;;;;;20.08;42.96;100547.94;105306;1270;59778;-74
2022/09/01 13:23:19;;;;;;;3.50;0.70;;;;;;;19.96;43.49;100552.84;105146;1271;60483;-74
2022/09/01 13:26:09;;;;;;;4.20;0.80;;;;;;;19.73;43.80;100561.23;105245;1271;72917;-73
2022/09/01 13:28:58;;;;;;;3.80;0.90;;;;;;;19.44;44.38;100561.98;105221;1271;69655;-72
2022/09/01 13:31:46;;;;;;;4.80;0.80;;;;;;;19.12;45.00;100564.39;105130;1271;72846;-70
2022/09/01 13:34:54;;;;;;;5.20;0.90;;;;;;;18.76;44.67;100564.11;105096;1271;59641;-74